Time;durP1;ratioP1;P1;durP2;ratioP2;P2;SDS_P1;SDS_P2;PMS_P1;PMS_P2;Temp;Humidity;BMP_temperature;BMP_pressure;BME280_temperature;BME280_humidity;BME280_pressure;Samples;Min_cycle;Max_cycle;Signal;HPM_P1;HPM_P2
2022/01/24 00:01:43;;;;;;;1999.90;999.90;;;6.80;99.90;;;;;;5053893;28;20805;-72
2022/01/24 00:04:11;;;;;;;1999.90;999.90;;;6.80;99.90;;;;;;5054731;28;20458;-72
2022/01/24 00:06:39;;;;;;;1999.90;999.90;;;6.80;99.90;;;;;;5055143;28;20481;-71
2022/01/24 00:09:07;;;;;;;1999.90;999.90;;;6.80;99.90;;;;;;5054974;28;21012;-72
2022/01/24 00:11:42;;;;;;;1999.90;999.90;;;6.80;99.90;;;;;;5054844;28;20530;-73
2022/01/24 00:14:45;;;;;;;1999.90;999.90;;;6.70;99.90;;;;;;5055092;28;20445;-73
2022/01/24 00:17:08;;;;;;;1999.90;999.90;;;6.70;99.90;;;;;;5047285;28;20462;-72
2022/01/24 00:27:51;;;;;;;1999.90;999.90;;;6.80;99.90;;;;;;5054220;28;20460;-72
2022/01/24 00:30:18;;;;;;;1999.90;999.90;;;6.70;99.90;;;;;;5053626;28;20541;-72
2022/01/24 00:32:45;;;;;;;1999.90;999.90;;;6.80;99.90;;;;;;5054022;28;20451;-72
2022/01/24 00:35:13;;;;;;;1999.90;999.90;;;6.80;99.90;;;;;;5054552;28;20451;-72
2022/01/24 00:37:40;;;;;;;1999.90;999.90;;;6.80;99.90;;;;;;5054506;28;20528;-72
2022/01/24 00:40:08;;;;;;;1999.90;999.90;;;6.70;99.90;;;;;;5054726;28;20447;-71
2022/01/24 00:42:46;;;;;;;1999.90;999.90;;;6.70;99.90;;;;;;5053916;28;20454;-72
2022/01/24 00:45:18;;;;;;;1999.90;999.90;;;6.70;99.90;;;;;;5054254;28;20821;-72
2022/01/24 00:48:05;;;;;;;1999.90;999.90;;;6.70;99.90;;;;;;5055347;28;20527;-72
2022/01/24 00:53:31;;;;;;;1999.90;999.90;;;6.60;99.90;;;;;;5053609;28;20442;-72
2022/01/24 00:55:59;;;;;;;1999.90;999.90;;;6.60;99.90;;;;;;5052968;28;20492;-74
2022/01/24 00:58:25;;;;;;;1999.90;999.90;;;6.70;99.90;;;;;;5053318;28;20450;-73
2022/01/24 01:00:52;;;;;;;1999.90;999.90;;;6.70;99.90;;;;;;5052968;28;20450;-72
2022/01/24 01:03:19;;;;;;;1999.90;999.90;;;6.80;99.90;;;;;;5053170;28;20500;-74
2022/01/24 01:06:03;;;;;;;1999.90;999.90;;;6.70;99.90;;;;;;5053343;28;21199;-72
2022/01/24 01:19:28;;;;;;;1999.90;999.90;;;6.70;99.90;;;;;;5033797;28;20780;-73
2022/01/24 01:21:56;;;;;;;1999.90;999.90;;;6.60;99.90;;;;;;5049713;28;20507;-72
2022/01/24 01:24:24;;;;;;;1999.90;999.90;;;6.70;99.90;;;;;;5052936;28;20450;-72
2022/01/24 01:26:56;;;;;;;1999.90;999.90;;;6.60;99.90;;;;;;5053722;28;20474;-72
2022/01/24 01:29:27;;;;;;;1999.90;999.90;;;6.60;99.90;;;;;;5053010;28;20482;-73
2022/01/24 01:32:03;;;;;;;1999.90;999.90;;;6.60;99.90;;;;;;5052695;28;20488;-72
2022/01/24 01:34:50;;;;;;;1999.90;999.90;;;6.70;99.90;;;;;;5053664;28;20442;-73
2022/01/24 01:40:39;;;;;;;1999.90;999.90;;;6.60;99.90;;;;;;5053643;28;20421;-72
2022/01/24 01:54:22;;;;;;;1999.90;999.90;;;6.50;99.90;;;;;;5053529;28;20516;-72
2022/01/24 01:56:48;;;;;;;1999.90;999.90;;;6.50;99.90;;;;;;5053893;28;21005;-72
2022/01/24 01:59:15;;;;;;;1999.90;999.90;;;6.50;99.90;;;;;;5053759;28;20494;-73
2022/01/24 02:01:42;;;;;;;1999.90;999.90;;;6.50;99.90;;;;;;5053315;28;20458;-73
2022/01/24 02:04:08;;;;;;;1999.90;999.90;;;6.50;99.90;;;;;;5053524;28;20946;-72
2022/01/24 02:06:35;;;;;;;1999.90;999.90;;;6.50;99.90;;;;;;5033883;28;20490;-71
2022/01/24 02:09:06;;;;;;;1999.90;999.90;;;6.40;99.90;;;;;;5046470;28;20492;-72
2022/01/24 02:11:34;;;;;;;1999.90;999.90;;;6.50;99.90;;;;;;5057629;28;20427;-72
2022/01/24 02:14:04;;;;;;;1999.90;999.90;;;6.50;99.90;;;;;;5057380;28;20492;-72
2022/01/24 02:16:40;;;;;;;1999.90;999.90;;;6.50;99.90;;;;;;5057250;28;20968;-72
2022/01/24 02:19:17;;;;;;;1999.90;999.90;;;6.40;99.90;;;;;;5056866;28;20442;-72
2022/01/24 02:21:48;;;;;;;1999.90;999.90;;;6.40;99.90;;;;;;5057295;28;20430;-72
2022/01/24 02:24:17;;;;;;;1999.90;999.90;;;6.40;99.90;;;;;;5056477;28;20465;-73
2022/01/24 02:26:47;;;;;;;1999.90;999.90;;;6.50;99.90;;;;;;5057390;28;20496;-73
2022/01/24 02:29:23;;;;;;;1999.90;999.90;;;6.50;99.90;;;;;;5056674;28;20837;-72
2022/01/24 02:31:51;;;;;;;1999.90;999.90;;;6.50;99.90;;;;;;5057302;28;20430;-72
2022/01/24 02:34:25;;;;;;;1999.90;999.90;;;6.40;99.90;;;;;;5056732;28;20460;-72
2022/01/24 02:36:54;;;;;;;1999.90;999.90;;;6.40;99.90;;;;;;5056800;28;20472;-72
2022/01/24 02:50:20;;;;;;;1999.90;999.90;;;6.30;99.90;;;;;;5053621;28;20498;-73
2022/01/24 02:52:48;;;;;;;1999.90;999.90;;;6.30;99.90;;;;;;5054751;28;20490;-72
2022/01/24 02:55:15;;;;;;;1999.90;999.90;;;6.20;99.90;;;;;;5054145;28;21016;-72
2022/01/24 02:57:41;;;;;;;1999.90;999.90;;;6.30;99.90;;;;;;5054528;28;20888;-72
2022/01/24 03:00:09;;;;;;;1999.90;999.90;;;6.40;99.90;;;;;;5054405;28;20458;-72
2022/01/24 03:02:36;;;;;;;1999.90;999.90;;;6.50;99.90;;;;;;5054232;28;20446;-73
2022/01/24 03:05:03;;;;;;;1999.90;999.90;;;6.60;99.90;;;;;;5054578;28;20657;-72
2022/01/24 03:07:31;;;;;;;1999.90;999.90;;;6.60;99.90;;;;;;5055360;28;21024;-72
2022/01/24 03:10:02;;;;;;;1999.90;999.90;;;6.60;99.90;;;;;;5054426;28;20474;-72
2022/01/24 03:12:40;;;;;;;1999.90;999.90;;;6.70;99.90;;;;;;5055332;28;20455;-72
2022/01/24 03:15:08;;;;;;;1999.90;999.90;;;6.50;99.90;;;;;;5054708;28;20861;-72
2022/01/24 03:17:35;;;;;;;1999.90;999.90;;;6.50;99.90;;;;;;5054425;28;20524;-73
2022/01/24 03:20:02;;;;;;;1999.90;999.90;;;6.60;99.90;;;;;;5053028;28;20496;-73
2022/01/24 03:22:28;;;;;;;1999.90;999.90;;;6.60;99.90;;;;;;5054534;28;20446;-73
2022/01/24 03:24:55;;;;;;;1999.90;999.90;;;6.60;99.90;;;;;;5054044;28;20466;-74
2022/01/24 03:27:23;;;;;;;1999.90;999.90;;;6.60;99.90;;;;;;5054902;28;21040;-72
2022/01/24 03:29:50;;;;;;;1999.90;999.90;;;6.50;99.90;;;;;;5053598;28;20482;-73
2022/01/24 03:32:17;;;;;;;1999.90;999.90;;;6.40;99.90;;;;;;5053111;28;20446;-72
2022/01/24 03:34:44;;;;;;;1999.90;999.90;;;6.50;99.90;;;;;;5054590;28;20508;-72
2022/01/24 03:37:10;;;;;;;1999.90;999.90;;;6.60;99.90;;;;;;5054772;28;20474;-72
2022/01/24 03:39:37;;;;;;;1999.90;999.90;;;6.50;99.90;;;;;;5054777;28;20446;-72
2022/01/24 03:42:04;;;;;;;1999.90;999.90;;;6.60;99.90;;;;;;5054805;28;20508;-72
2022/01/24 03:44:32;;;;;;;1999.90;999.90;;;6.50;99.90;;;;;;5054704;28;20472;-72
2022/01/24 03:47:18;;;;;;;1999.90;999.90;;;6.60;99.90;;;;;;5053685;28;20557;-72
2022/01/24 03:49:48;;;;;;;1999.90;999.90;;;6.50;99.90;;;;;;5053866;28;20446;-73
2022/01/24 03:52:18;;;;;;;1999.90;999.90;;;6.50;99.90;;;;;;5054077;28;20521;-73
2022/01/24 03:54:47;;;;;;;1999.90;999.90;;;6.40;99.90;;;;;;5053740;28;20446;-73
2022/01/24 03:57:16;;;;;;;1999.90;999.90;;;6.40;99.90;;;;;;5053141;28;20467;-72
2022/01/24 03:59:44;;;;;;;1999.90;999.90;;;6.50;99.90;;;;;;5054718;28;20446;-72
2022/01/24 04:02:12;;;;;;;1999.90;999.90;;;6.60;99.90;;;;;;5052893;28;21025;-72
2022/01/24 04:04:39;;;;;;;1999.90;999.90;;;6.50;99.90;;;;;;5054728;28;20442;-72
2022/01/24 04:07:07;;;;;;;1999.90;999.90;;;6.40;99.90;;;;;;5053789;28;20512;-72
2022/01/24 04:09:35;;;;;;;1999.90;999.90;;;6.40;99.90;;;;;;5054388;28;20947;-72
2022/01/24 04:12:02;;;;;;;1999.90;999.90;;;6.40;99.90;;;;;;5053604;28;20493;-72
2022/01/24 04:14:36;;;;;;;1999.90;999.90;;;6.30;99.90;;;;;;5053940;28;20547;-72
2022/01/24 04:17:21;;;;;;;1999.90;999.90;;;6.40;99.90;;;;;;5053857;28;20487;-72
2022/01/24 04:22:37;;;;;;;1999.90;999.90;;;6.30;99.90;;;;;;5053971;28;20432;-73
2022/01/24 04:25:06;;;;;;;1999.90;999.90;;;6.30;99.90;;;;;;5053634;28;20893;-73
2022/01/24 04:27:33;;;;;;;1999.90;999.90;;;6.30;99.90;;;;;;5054660;28;20470;-72
2022/01/24 04:29:59;;;;;;;1999.90;999.90;;;6.30;99.90;;;;;;5053320;28;20466;-71
2022/01/24 04:32:27;;;;;;;1999.90;999.90;;;6.40;99.90;;;;;;5054784;28;20505;-73
2022/01/24 04:34:54;;;;;;;1999.90;999.90;;;6.50;99.90;;;;;;5055245;28;20548;-75
2022/01/24 04:37:21;;;;;;;1999.90;999.90;;;6.40;99.90;;;;;;5054368;28;20479;-72
2022/01/24 04:39:48;;;;;;;1999.90;999.90;;;6.30;99.90;;;;;;5054448;28;20492;-73
2022/01/24 04:42:22;;;;;;;1999.90;999.90;;;6.60;99.90;;;;;;5052988;28;20482;-73
2022/01/24 04:45:06;;;;;;;1999.90;999.90;;;6.40;99.90;;;;;;5054312;28;20437;-72
2022/01/24 04:47:48;;;;;;;1999.90;999.90;;;6.40;99.90;;;;;;5052805;28;21007;-72
2022/01/24 04:50:39;;;;;;;1999.90;999.90;;;6.40;99.90;;;;;;5053237;28;20993;-72
2022/01/24 04:53:12;;;;;;;1999.90;999.90;;;6.20;99.90;;;;;;5043123;28;20517;-73
2022/01/24 04:55:39;;;;;;;1999.90;999.90;;;6.30;99.90;;;;;;5053175;28;20450;-73
2022/01/24 04:58:05;;;;;;;1999.90;999.90;;;6.40;99.90;;;;;;5053595;28;20442;-72
2022/01/24 05:00:32;;;;;;;1999.90;999.90;;;6.30;99.90;;;;;;5053803;28;20458;-73
2022/01/24 05:03:00;;;;;;;1999.90;999.90;;;6.30;99.90;;;;;;5053264;28;20454;-73
2022/01/24 05:05:28;;;;;;;1999.90;999.90;;;6.30;99.90;;;;;;5053195;28;21000;-72
2022/01/24 05:07:55;;;;;;;1999.90;999.90;;;6.30;99.90;;;;;;5053056;28;20501;-73
2022/01/24 05:10:29;;;;;;;1999.90;999.90;;;6.30;99.90;;;;;;5054083;28;20477;-72
2022/01/24 05:21:42;;;;;;;1999.90;999.90;;;6.20;99.90;;;;;;5053632;28;20410;-72
2022/01/24 05:24:08;;;;;;;1999.90;999.90;;;6.20;99.90;;;;;;5054273;28;20958;-72
2022/01/24 05:26:34;;;;;;;1999.90;999.90;;;6.30;99.90;;;;;;5054825;28;20512;-73
2022/01/24 05:29:01;;;;;;;1999.90;999.90;;;6.30;99.90;;;;;;5053821;28;20241;-73
2022/01/24 05:31:27;;;;;;;1999.90;999.90;;;6.20;99.90;;;;;;5053714;28;20511;-72
2022/01/24 05:33:55;;;;;;;1999.90;999.90;;;6.20;99.90;;;;;;5054108;28;20507;-72
2022/01/24 05:36:22;;;;;;;1999.90;999.90;;;6.20;99.90;;;;;;5053967;28;20462;-72
2022/01/24 05:38:49;;;;;;;1999.90;999.90;;;6.10;99.90;;;;;;5054237;28;20446;-72
2022/01/24 05:41:16;;;;;;;1999.90;999.90;;;6.10;99.90;;;;;;5053205;28;20504;-73
2022/01/24 05:43:43;;;;;;;1999.90;999.90;;;6.10;99.90;;;;;;5056275;28;20466;-72
2022/01/24 05:46:10;;;;;;;1999.90;999.90;;;6.20;99.90;;;;;;5057559;28;20474;-72
2022/01/24 05:48:36;;;;;;;1999.90;999.90;;;6.20;99.90;;;;;;5057751;28;20496;-72
2022/01/24 05:51:04;;;;;;;1999.90;999.90;;;6.10;99.90;;;;;;5057437;28;20832;-72
2022/01/24 05:53:31;;;;;;;1999.90;999.90;;;6.00;99.90;;;;;;5057441;28;20480;-72
2022/01/24 05:55:59;;;;;;;1999.90;999.90;;;6.10;99.90;;;;;;5058122;28;20528;-72
2022/01/24 05:58:25;;;;;;;1999.90;999.90;;;6.10;99.90;;;;;;5057257;28;21061;-72
2022/01/24 06:00:52;;;;;;;1999.90;999.90;;;6.10;99.90;;;;;;5057252;28;20446;-72
2022/01/24 06:03:20;;;;;;;1999.90;999.90;;;6.10;99.90;;;;;;5057036;28;20504;-73
2022/01/24 06:05:47;;;;;;;1999.90;999.90;;;6.10;99.90;;;;;;5057584;28;20460;-72
2022/01/24 06:08:15;;;;;;;1999.90;999.90;;;6.20;99.90;;;;;;5057387;28;20468;-73
2022/01/24 06:10:41;;;;;;;1999.90;999.90;;;6.10;99.90;;;;;;5057070;28;20527;-73
2022/01/24 06:13:08;;;;;;;1999.90;999.90;;;6.10;99.90;;;;;;5057781;28;20450;-72
2022/01/24 06:15:35;;;;;;;1999.90;999.90;;;6.10;99.90;;;;;;5056838;28;20450;-70
2022/01/24 06:18:01;;;;;;;1999.90;999.90;;;6.10;99.90;;;;;;5056693;28;20446;-72
2022/01/24 06:20:28;;;;;;;1999.90;999.90;;;6.00;99.90;;;;;;5055919;28;20458;-74
2022/01/24 06:22:55;;;;;;;1999.90;999.90;;;6.10;99.90;;;;;;5056985;28;20446;-72
2022/01/24 06:25:24;;;;;;;1999.90;999.90;;;6.10;99.90;;;;;;5056664;28;20477;-72
2022/01/24 06:27:52;;;;;;;1999.90;999.90;;;6.10;99.90;;;;;;5056308;28;20565;-72
2022/01/24 06:30:18;;;;;;;1999.90;999.90;;;6.10;99.90;;;;;;5055157;28;20486;-72
2022/01/24 06:32:45;;;;;;;1999.90;999.90;;;6.20;99.90;;;;;;5054574;28;21062;-74
2022/01/24 06:35:13;;;;;;;1999.90;999.90;;;6.20;99.90;;;;;;5055917;28;21016;-72
2022/01/24 06:37:40;;;;;;;1999.90;999.90;;;6.20;99.90;;;;;;5056436;28;20521;-72
2022/01/24 06:40:09;;;;;;;1999.90;999.90;;;6.20;99.90;;;;;;5056060;28;20462;-72
2022/01/24 06:42:38;;;;;;;1999.90;999.90;;;6.30;99.90;;;;;;5056498;28;20459;-72
2022/01/24 06:45:06;;;;;;;1999.90;999.90;;;6.20;99.90;;;;;;5055801;28;20999;-72
2022/01/24 06:47:32;;;;;;;1999.90;999.90;;;6.10;99.90;;;;;;5057200;28;20504;-73
2022/01/24 06:49:59;;;;;;;1999.90;999.90;;;6.00;99.90;;;;;;5056962;28;20454;-75
2022/01/24 06:52:26;;;;;;;1999.90;999.90;;;6.00;99.90;;;;;;5056349;28;20501;-72
2022/01/24 06:54:53;;;;;;;1999.90;999.90;;;6.00;99.90;;;;;;5055880;28;20503;-74
2022/01/24 06:57:19;;;;;;;1999.90;999.90;;;6.00;99.90;;;;;;5056832;28;20528;-72
2022/01/24 06:59:48;;;;;;;1999.90;999.90;;;5.90;99.90;;;;;;5056630;28;20962;-72
2022/01/24 07:02:17;;;;;;;1999.90;999.90;;;5.90;99.90;;;;;;5055281;28;20966;-72
2022/01/24 07:04:44;;;;;;;1999.90;999.90;;;5.90;99.90;;;;;;5056509;28;20469;-72
2022/01/24 07:07:12;;;;;;;1999.90;999.90;;;6.00;99.90;;;;;;5055725;28;20493;-72
2022/01/24 07:09:39;;;;;;;1999.90;999.90;;;6.00;99.90;;;;;;5056548;28;20442;-72
2022/01/24 07:12:07;;;;;;;1999.90;999.90;;;6.00;99.90;;;;;;5055909;28;20559;-74
2022/01/24 07:14:34;;;;;;;1999.90;999.90;;;6.00;99.90;;;;;;5056431;28;20840;-73
2022/01/24 07:17:11;;;;;;;1999.90;999.90;;;5.90;99.90;;;;;;5055561;28;20466;-72
2022/01/24 07:19:38;;;;;;;1999.90;999.90;;;5.90;99.90;;;;;;5052177;28;20472;-72
2022/01/24 07:22:06;;;;;;;1999.90;999.90;;;5.90;99.90;;;;;;5055630;28;20439;-73
2022/01/24 07:24:34;;;;;;;1999.90;999.90;;;5.90;99.90;;;;;;5055995;28;20468;-72
2022/01/24 07:27:02;;;;;;;1999.90;999.90;;;5.90;99.90;;;;;;5055606;28;20466;-72
2022/01/24 07:29:29;;;;;;;1999.90;999.90;;;6.00;99.90;;;;;;5054910;28;20902;-72
2022/01/24 07:31:55;;;;;;;1999.90;999.90;;;6.00;99.90;;;;;;5054084;28;20524;-75
2022/01/24 07:34:23;;;;;;;1999.90;999.90;;;5.90;99.90;;;;;;5055022;28;20939;-72
2022/01/24 07:36:50;;;;;;;1999.90;999.90;;;5.90;99.90;;;;;;5054988;28;20986;-72
2022/01/24 07:39:17;;;;;;;1999.90;999.90;;;5.90;99.90;;;;;;5055342;28;20463;-72
2022/01/24 07:41:45;;;;;;;1999.90;999.90;;;5.90;99.90;;;;;;5054004;28;20450;-73
2022/01/24 07:44:13;;;;;;;1999.90;999.90;;;6.00;99.90;;;;;;5055683;28;20889;-74
2022/01/24 07:46:40;;;;;;;1999.90;999.90;;;5.90;99.90;;;;;;5054372;28;20516;-72
2022/01/24 07:49:10;;;;;;;1999.90;999.90;;;6.00;99.90;;;;;;5053833;28;21115;-73
2022/01/24 07:51:39;;;;;;;1999.90;999.90;;;6.00;99.90;;;;;;5053718;28;21045;-74
2022/01/24 07:54:06;;;;;;;1999.90;999.90;;;6.10;99.90;;;;;;5055064;28;20446;-72
2022/01/24 07:56:32;;;;;;;1999.90;999.90;;;6.10;99.90;;;;;;5055481;28;20466;-72
2022/01/24 07:58:59;;;;;;;1999.90;999.90;;;6.10;99.90;;;;;;5055645;28;20450;-72
2022/01/24 08:01:26;;;;;;;1999.90;999.90;;;6.10;99.90;;;;;;5054119;28;20450;-73
2022/01/24 08:03:53;;;;;;;1999.90;999.90;;;6.10;99.90;;;;;;5054971;28;20446;-72
2022/01/24 08:06:20;;;;;;;1999.90;999.90;;;6.10;99.90;;;;;;5053852;28;20465;-74
2022/01/24 08:08:48;;;;;;;1999.90;999.90;;;6.10;99.90;;;;;;5055044;28;20450;-72
2022/01/24 08:11:16;;;;;;;1999.90;999.90;;;6.10;99.90;;;;;;5054204;28;20551;-72
2022/01/24 08:13:43;;;;;;;1999.90;999.90;;;6.20;99.90;;;;;;5054650;28;20450;-73
2022/01/24 08:16:10;;;;;;;1999.90;999.90;;;6.30;99.90;;;;;;5054077;28;20472;-72
2022/01/24 08:18:37;;;;;;;1999.90;999.90;;;6.20;99.90;;;;;;5051743;28;20524;-72
2022/01/24 08:21:03;;;;;;;1999.90;999.90;;;6.20;99.90;;;;;;5053015;28;20450;-73
2022/01/24 08:23:30;;;;;;;1999.90;999.90;;;6.10;99.90;;;;;;5050407;28;20450;-73
2022/01/24 08:25:58;;;;;;;1999.90;999.90;;;6.20;99.90;;;;;;5053564;28;20470;-72
2022/01/24 08:28:24;;;;;;;1999.90;999.90;;;6.30;99.90;;;;;;5052798;28;20450;-72
2022/01/24 08:30:52;;;;;;;1999.90;999.90;;;6.30;99.90;;;;;;5053192;28;20508;-72
2022/01/24 08:33:19;;;;;;;1999.90;999.90;;;6.30;99.90;;;;;;5051605;28;20490;-73
2022/01/24 08:35:45;;;;;;;1999.90;999.90;;;6.30;99.90;;;;;;5052529;28;20450;-72
2022/01/24 08:38:12;;;;;;;1999.90;999.90;;;6.40;99.90;;;;;;5052226;28;20963;-74
2022/01/24 08:40:40;;;;;;;1999.90;999.90;;;6.50;99.90;;;;;;5052493;28;20500;-73
2022/01/24 08:43:09;;;;;;;1999.90;999.90;;;6.50;99.90;;;;;;5051810;28;20475;-73
2022/01/24 08:45:50;;;;;;;1999.90;999.90;;;6.50;99.90;;;;;;5052693;28;20954;-72
2022/01/24 08:48:19;;;;;;;1999.90;999.90;;;6.50;99.90;;;;;;5051760;28;20470;-72
2022/01/24 08:50:47;;;;;;;1999.90;999.90;;;6.60;99.90;;;;;;5053746;28;20937;-72
2022/01/24 08:53:14;;;;;;;1999.90;999.90;;;6.50;99.90;;;;;;5053383;28;20482;-72
2022/01/24 08:55:41;;;;;;;1999.90;999.90;;;6.40;99.90;;;;;;5054887;28;20504;-72
2022/01/24 08:58:13;;;;;;;1999.90;999.90;;;6.40;99.90;;;;;;5054451;28;20458;-72
2022/01/24 09:00:40;;;;;;;1999.90;999.90;;;6.50;99.90;;;;;;5052380;28;20459;-73
2022/01/24 09:03:07;;;;;;;1999.90;999.90;;;6.70;99.90;;;;;;5052458;28;20450;-74
2022/01/24 09:05:35;;;;;;;1999.90;999.90;;;6.70;99.90;;;;;;5054264;28;20458;-73
2022/01/24 09:08:03;;;;;;;1999.90;999.90;;;6.70;99.90;;;;;;5051862;28;20969;-73
2022/01/24 09:10:30;;;;;;;1999.90;999.90;;;6.80;99.90;;;;;;5047816;28;20450;-74
2022/01/24 09:12:57;;;;;;;1999.90;999.90;;;6.90;99.90;;;;;;5052299;28;20494;-75
2022/01/24 09:15:25;;;;;;;1999.90;999.90;;;7.00;99.90;;;;;;5050602;28;20946;-74
2022/01/24 09:17:51;;;;;;;1999.90;999.90;;;7.10;99.90;;;;;;5046772;28;20536;-73
2022/01/24 09:20:18;;;;;;;1999.90;999.90;;;7.20;99.90;;;;;;5049833;28;20869;-73
2022/01/24 09:22:46;;;;;;;1999.90;999.90;;;7.30;99.90;;;;;;5050384;28;20504;-73
2022/01/24 09:25:15;;;;;;;1999.90;999.90;;;7.30;99.90;;;;;;5050644;28;20450;-73
2022/01/24 09:27:43;;;;;;;1999.90;999.90;;;7.20;99.90;;;;;;5050685;28;20473;-74
2022/01/24 09:30:13;;;;;;;1999.90;999.90;;;7.10;99.90;;;;;;5049573;28;20454;-74
2022/01/24 09:32:42;;;;;;;1999.90;999.90;;;7.20;99.90;;;;;;5049003;28;20527;-73
2022/01/24 09:35:11;;;;;;;1999.90;999.90;;;7.30;99.90;;;;;;5051962;28;21000;-73
2022/01/24 09:37:38;;;;;;;1999.90;999.90;;;7.30;99.90;;;;;;5051838;28;20519;-73
2022/01/24 09:40:07;;;;;;;1999.90;999.90;;;7.40;99.90;;;;;;5051568;28;20504;-72
2022/01/24 09:42:34;;;;;;;1999.90;999.90;;;7.40;99.90;;;;;;5052540;28;20500;-72
2022/01/24 09:45:01;;;;;;;1999.90;999.90;;;7.20;99.90;;;;;;5051892;28;20797;-72
2022/01/24 09:47:28;;;;;;;1999.90;999.90;;;7.20;99.90;;;;;;5052408;28;21807;-72
2022/01/24 09:49:57;;;;;;;1999.90;999.90;;;7.00;99.90;;;;;;5051769;28;20442;-72
2022/01/24 09:52:24;;;;;;;1999.90;999.90;;;7.10;99.90;;;;;;5051472;28;20580;-72
2022/01/24 09:54:51;;;;;;;1999.90;999.90;;;7.10;99.90;;;;;;5051893;28;20868;-72
2022/01/24 09:57:18;;;;;;;1999.90;999.90;;;7.20;99.90;;;;;;5052158;28;20466;-72
2022/01/24 09:59:44;;;;;;;1999.90;999.90;;;7.10;99.90;;;;;;5053769;28;20789;-72
2022/01/24 10:02:11;;;;;;;1999.90;999.90;;;7.10;99.90;;;;;;5054861;28;20469;-72
2022/01/24 10:04:38;;;;;;;1999.90;999.90;;;7.00;99.90;;;;;;5053258;28;20442;-72
2022/01/24 10:07:08;;;;;;;1999.90;999.90;;;7.00;99.90;;;;;;5052295;28;20462;-71
2022/01/24 10:09:37;;;;;;;1999.90;999.90;;;7.00;99.90;;;;;;5054249;28;20449;-70
2022/01/24 10:12:27;;;;;;;1999.90;999.90;;;6.90;99.90;;;;;;5053570;28;20481;-72
2022/01/24 10:17:41;;;;;;;1999.90;999.90;;;6.90;99.90;;;;;;5052515;28;20444;-74
2022/01/24 10:20:21;;;;;;;1999.90;999.90;;;7.00;99.90;;;;;;5036542;28;20458;-72
2022/01/24 10:23:07;;;;;;;1999.90;999.90;;;7.10;99.90;;;;;;5051282;28;20480;-70
2022/01/24 10:25:46;;;;;;;1999.90;999.90;;;7.10;99.90;;;;;;5051134;28;20491;-72
2022/01/24 10:28:22;;;;;;;1999.90;999.90;;;7.20;99.90;;;;;;5032107;28;20446;-72
2022/01/24 10:31:01;;;;;;;1999.90;999.90;;;7.30;99.90;;;;;;5049549;28;20466;-71
2022/01/24 10:33:27;;;;;;;1999.90;999.90;;;7.30;99.90;;;;;;5055168;28;20588;-72
2022/01/24 10:35:54;;;;;;;1999.90;999.90;;;7.50;99.90;;;;;;5054310;28;20450;-72
2022/01/24 10:38:29;;;;;;;1999.90;999.90;;;7.40;99.90;;;;;;5054785;28;21025;-72
2022/01/24 10:41:09;;;;;;;1999.90;999.90;;;7.40;99.90;;;;;;5053153;28;20442;-74
2022/01/24 10:43:38;;;;;;;1999.90;999.90;;;7.50;99.90;;;;;;5041857;28;20449;-72
2022/01/24 10:46:05;;;;;;;1999.90;999.90;;;7.50;99.90;;;;;;5054283;28;20470;-71
2022/01/24 10:48:33;;;;;;;1999.90;999.90;;;7.50;99.90;;;;;;5052131;28;20449;-73
2022/01/24 10:51:13;;;;;;;1999.90;999.90;;;7.40;99.90;;;;;;5055510;28;20446;-72
2022/01/24 10:53:44;;;;;;;1999.90;999.90;;;7.40;99.90;;;;;;5056540;28;21146;-72
2022/01/24 10:56:28;;;;;;;1999.90;999.90;;;7.40;99.90;;;;;;5053490;28;20489;-71
2022/01/24 10:58:58;;;;;;;1999.90;999.90;;;7.30;99.90;;;;;;5055179;28;20473;-72
2022/01/24 11:01:27;;;;;;;1999.90;999.90;;;7.30;99.90;;;;;;5055578;28;20492;-71
2022/01/24 11:04:01;;;;;;;1999.90;999.90;;;7.40;99.90;;;;;;5052840;28;20478;-72
2022/01/24 11:06:29;;;;;;;1999.90;999.90;;;7.30;99.90;;;;;;5053890;28;20855;-72
2022/01/24 11:09:21;;;;;;;1999.90;999.90;;;7.30;99.90;;;;;;5056238;28;20454;-72
2022/01/24 11:11:48;;;;;;;1999.90;999.90;;;7.30;99.90;;;;;;5056173;28;20824;-72
2022/01/24 11:14:18;;;;;;;1999.90;999.90;;;7.20;99.90;;;;;;5042595;28;20514;-71
2022/01/24 11:16:45;;;;;;;1999.90;999.90;;;7.10;99.90;;;;;;5036387;28;20528;-72
2022/01/24 11:19:17;;;;;;;1999.90;999.90;;;7.20;99.90;;;;;;5037838;28;21011;-72
2022/01/24 11:21:45;;;;;;;1999.90;999.90;;;7.20;99.90;;;;;;5055020;28;20447;-71
2022/01/24 11:24:17;;;;;;;1999.90;999.90;;;7.20;99.90;;;;;;5044004;28;20454;-72
2022/01/24 11:26:46;;;;;;;1999.90;999.90;;;7.30;99.90;;;;;;5055146;28;20520;-72
2022/01/24 11:29:13;;;;;;;1999.90;999.90;;;7.20;99.90;;;;;;5055068;28;20454;-71
2022/01/24 11:31:44;;;;;;;1999.90;999.90;;;7.20;99.90;;;;;;5054444;28;20450;-71
2022/01/24 11:34:18;;;;;;;1999.90;999.90;;;7.30;99.90;;;;;;5054231;28;20490;-70
2022/01/24 11:36:45;;;;;;;1999.90;999.90;;;7.30;99.90;;;;;;5055177;28;20462;-72
2022/01/24 11:39:12;;;;;;;1999.90;999.90;;;7.30;99.90;;;;;;5055466;28;20447;-71
2022/01/24 11:41:41;;;;;;;1999.90;999.90;;;7.20;99.90;;;;;;5055211;28;20496;-71
2022/01/24 11:44:12;;;;;;;1999.90;999.90;;;7.20;99.90;;;;;;5054976;28;20466;-71
2022/01/24 11:46:47;;;;;;;1999.90;999.90;;;7.20;99.90;;;;;;5055395;28;20466;-71
2022/01/24 11:49:15;;;;;;;1999.90;999.90;;;7.30;99.90;;;;;;5054558;28;20542;-71
2022/01/24 11:51:43;;;;;;;1999.90;999.90;;;7.30;99.90;;;;;;5054645;28;20446;-71
2022/01/24 11:54:33;;;;;;;1999.90;999.90;;;7.30;99.90;;;;;;5055373;28;20486;-71
2022/01/24 11:57:15;;;;;;;1999.90;999.90;;;7.20;99.90;;;;;;5054702;28;20488;-72
2022/01/24 11:59:44;;;;;;;1999.90;999.90;;;7.30;99.90;;;;;;5054201;28;20454;-71
2022/01/24 12:02:12;;;;;;;1999.90;999.90;;;7.30;99.90;;;;;;5053749;28;20873;-72
2022/01/24 12:04:50;;;;;;;1999.90;999.90;;;7.30;99.90;;;;;;5045266;28;20452;-71
2022/01/24 12:07:18;;;;;;;1999.90;999.90;;;7.40;99.90;;;;;;5053738;28;20523;-71
2022/01/24 12:09:45;;;;;;;1999.90;999.90;;;7.40;99.90;;;;;;5053707;28;20451;-72
2022/01/24 12:12:41;;;;;;;1999.90;999.90;;;7.40;99.90;;;;;;5053037;28;20446;-72
2022/01/24 12:15:10;;;;;;;1999.90;999.90;;;7.30;99.90;;;;;;5053230;28;20441;-71
2022/01/24 12:17:48;;;;;;;1999.90;999.90;;;7.30;99.90;;;;;;5052924;28;20470;-71
2022/01/24 12:20:47;;;;;;;1999.90;999.90;;;7.30;99.90;;;;;;5052849;28;20438;-72
2022/01/24 12:23:39;;;;;;;1999.90;999.90;;;7.30;99.90;;;;;;5053131;28;20493;-72
2022/01/24 12:26:07;;;;;;;1999.90;999.90;;;7.20;99.90;;;;;;5053114;28;20485;-72
2022/01/24 12:28:46;;;;;;;1999.90;999.90;;;7.20;99.90;;;;;;5052929;28;20446;-72
2022/01/24 12:31:21;;;;;;;1999.90;999.90;;;7.20;99.90;;;;;;5052364;28;20485;-72
2022/01/24 12:33:59;;;;;;;1999.90;999.90;;;7.20;99.90;;;;;;5052690;28;20557;-72
2022/01/24 12:36:49;;;;;;;1999.90;999.90;;;7.30;99.90;;;;;;5052559;28;20772;-70
2022/01/24 12:39:21;;;;;;;1999.90;999.90;;;7.40;99.90;;;;;;5052413;28;20438;-72
2022/01/24 12:41:53;;;;;;;1999.90;999.90;;;7.40;99.90;;;;;;5052606;28;20442;-69
2022/01/24 12:47:24;;;;;;;1999.90;999.90;;;7.30;99.90;;;;;;4991440;28;20463;-70
2022/01/24 12:49:51;;;;;;;1999.90;999.90;;;7.30;99.90;;;;;;4992065;28;20453;-71
2022/01/24 12:52:20;;;;;;;1999.90;999.90;;;7.40;99.90;;;;;;5019318;28;20511;-69
2022/01/24 12:54:48;;;;;;;1999.90;999.90;;;7.50;99.90;;;;;;5052571;28;20536;-67
2022/01/24 12:57:18;;;;;;;1999.90;999.90;;;7.50;99.90;;;;;;5052698;28;21093;-71
2022/01/24 12:59:53;;;;;;;1999.90;999.90;;;7.60;99.90;;;;;;5053684;28;20485;-69
2022/01/24 13:02:25;;;;;;;1999.90;999.90;;;7.60;99.90;;;;;;5053755;28;20434;-69
2022/01/24 13:04:52;;;;;;;1999.90;999.90;;;7.50;99.90;;;;;;5053050;28;20437;-69
2022/01/24 13:07:19;;;;;;;1999.90;999.90;;;7.50;99.90;;;;;;5053081;28;20462;-69
2022/01/24 13:09:46;;;;;;;1999.90;999.90;;;7.60;99.90;;;;;;5052946;28;20496;-69
2022/01/24 13:12:13;;;;;;;1999.90;999.90;;;7.60;99.90;;;;;;5053522;28;20450;-69
2022/01/24 13:14:45;;;;;;;1999.90;999.90;;;7.50;99.90;;;;;;5052210;28;20482;-72
2022/01/24 13:22:51;;;;;;;1999.90;999.90;;;7.50;99.90;;;;;;5052156;28;20992;-71
2022/01/24 13:25:20;;;;;;;1999.90;999.90;;;7.50;99.90;;;;;;5051647;28;20454;-74
2022/01/24 13:27:49;;;;;;;1999.90;999.90;;;7.50;99.90;;;;;;5051977;28;20565;-72
2022/01/24 13:30:22;;;;;;;1999.90;999.90;;;7.50;99.90;;;;;;5051706;28;20466;-69
2022/01/24 13:32:52;;;;;;;1999.90;999.90;;;7.50;99.90;;;;;;5051433;28;21023;-69